Time;durP1;ratioP1;P1;durP2;ratioP2;P2;SDS_P1;SDS_P2;PMS_P1;PMS_P2;Temp;Humidity;BMP_temperature;BMP_pressure;BME280_temperature;BME280_humidity;BME280_pressure;Samples;Min_cycle;Max_cycle;Signal;HPM_P1;HPM_P2
2022/12/29 00:01:36;;;;;;;9.87;6.23;;;6.50;99.90;;;;;;10371582;28;20267;-85
2022/12/29 00:06:39;;;;;;;9.07;5.87;;;6.40;99.90;;;;;;10370864;28;20260;-87
2022/12/29 00:11:42;;;;;;;8.73;5.30;;;6.40;99.90;;;;;;10370572;28;20239;-87
2022/12/29 00:16:45;;;;;;;10.87;6.83;;;6.20;99.90;;;;;;10370723;28;20241;-87
2022/12/29 00:54:05;;;;;;;6.10;5.30;;;6.10;99.90;;;;;;10164583;29;20236;-87
2022/12/29 00:59:10;;;;;;;7.20;5.60;;;6.10;99.90;;;;;;10164398;29;20263;-87
2022/12/29 01:04:13;;;;;;;6.37;4.70;;;6.10;99.90;;;;;;10164215;29;20738;-87
2022/12/29 01:14:58;;;;;;;8.10;5.30;;;6.20;99.90;;;;;;10048045;29;20310;-87
2022/12/29 01:20:01;;;;;;;6.07;4.57;;;6.10;99.90;;;;;;10013092;29;20232;-86
2022/12/29 01:25:05;;;;;;;12.20;5.83;;;6.20;99.90;;;;;;10009681;29;20275;-87
2022/12/29 01:30:09;;;;;;;7.17;4.90;;;6.20;99.90;;;;;;10094476;29;20724;-87
2022/12/29 01:35:11;;;;;;;7.90;5.90;;;6.30;99.90;;;;;;10147914;29;20253;-87
2022/12/29 01:40:14;;;;;;;8.23;5.83;;;6.30;99.90;;;;;;10163368;29;20680;-87
2022/12/29 01:45:17;;;;;;;8.10;4.63;;;6.40;99.90;;;;;;10281877;28;20259;-87
2022/12/29 01:50:29;;;;;;;9.77;4.87;;;6.40;99.90;;;;;;10350092;28;20290;-87
2022/12/29 01:55:39;;;;;;;8.43;5.17;;;6.50;99.90;;;;;;10331329;28;20313;-87
2022/12/29 02:00:43;;;;;;;12.27;5.67;;;6.50;99.90;;;;;;10349285;28;20273;-87
2022/12/29 02:06:00;;;;;;;7.07;5.13;;;6.60;99.90;;;;;;10349912;28;20317;-87
2022/12/29 02:11:03;;;;;;;5.37;3.83;;;6.60;99.90;;;;;;10366310;28;20231;-87
2022/12/29 02:16:32;;;;;;;7.07;4.40;;;6.70;99.90;;;;;;10365707;28;20297;-87
2022/12/29 02:21:46;;;;;;;7.47;5.00;;;6.70;99.90;;;;;;10348830;28;20255;-87
2022/12/29 02:27:16;;;;;;;5.33;3.60;;;6.70;99.90;;;;;;10350875;28;20744;-87
2022/12/29 02:32:30;;;;;;;5.63;4.00;;;6.80;99.90;;;;;;10356030;28;20317;-87
2022/12/29 02:38:03;;;;;;;4.73;3.80;;;6.90;99.90;;;;;;10339593;28;20297;-87
2022/12/29 02:43:31;;;;;;;5.63;4.17;;;7.10;99.90;;;;;;10325653;28;20229;-87
2022/12/29 02:48:52;;;;;;;3.77;3.30;;;7.20;99.90;;;;;;10332102;28;20330;-87
2022/12/29 02:59:17;;;;;;;4.60;3.87;;;7.00;99.90;;;;;;10385965;28;20256;-87
2022/12/29 03:04:35;;;;;;;5.10;3.77;;;7.00;99.90;;;;;;10386606;28;20238;-87
2022/12/29 03:09:48;;;;;;;5.97;3.97;;;7.00;99.90;;;;;;10372404;28;20784;-87
2022/12/29 03:20:45;;;;;;;10.70;3.97;;;7.00;99.90;;;;;;10355038;28;20292;-87
2022/12/29 03:25:53;;;;;;;4.20;3.43;;;6.90;99.90;;;;;;10354056;28;20672;-87
2022/12/29 03:30:58;;;;;;;4.93;3.33;;;6.90;99.90;;;;;;10337396;28;20282;-87
2022/12/29 03:36:07;;;;;;;7.93;3.50;;;6.90;99.90;;;;;;10354316;28;20688;-87
2022/12/29 03:41:16;;;;;;;6.47;3.93;;;6.90;99.90;;;;;;10353383;28;20684;-88
2022/12/29 03:46:20;;;;;;;5.73;3.30;;;6.80;99.90;;;;;;10322693;28;20706;-87
2022/12/29 03:51:22;;;;;;;4.10;2.97;;;6.90;99.90;;;;;;10330605;28;20212;-87
2022/12/29 03:56:26;;;;;;;5.00;3.50;;;6.90;99.90;;;;;;10329727;28;20241;-87
2022/12/29 04:01:29;;;;;;;6.37;3.97;;;6.80;99.90;;;;;;10351596;28;20643;-87
2022/12/29 04:06:31;;;;;;;4.57;3.57;;;6.60;99.90;;;;;;10352508;28;20263;-88
2022/12/29 04:11:38;;;;;;;4.03;3.50;;;6.60;99.90;;;;;;10351651;28;20204;-88
2022/12/29 04:16:41;;;;;;;4.07;3.37;;;6.50;99.90;;;;;;10321857;28;20236;-87
2022/12/29 04:21:44;;;;;;;4.90;3.57;;;6.50;99.90;;;;;;10330465;28;20302;-88
2022/12/29 04:26:46;;;;;;;6.73;4.13;;;6.50;99.90;;;;;;10355992;28;20240;-87
2022/12/29 04:32:07;;;;;;;4.30;3.50;;;6.50;99.90;;;;;;10346032;28;20236;-87
2022/12/29 04:37:15;;;;;;;4.27;3.20;;;6.50;99.90;;;;;;10337893;28;20306;-88
2022/12/29 04:42:17;;;;;;;4.47;3.37;;;6.50;99.90;;;;;;10328848;28;20267;-87
2022/12/29 04:47:21;;;;;;;4.80;3.27;;;6.50;99.90;;;;;;10327947;28;20827;-88
2022/12/29 04:52:36;;;;;;;5.27;3.60;;;6.50;99.90;;;;;;10332516;28;20594;-88
2022/12/29 04:57:40;;;;;;;5.30;3.37;;;6.50;99.90;;;;;;10325655;28;20263;-88
2022/12/29 05:02:45;;;;;;;3.80;3.37;;;6.70;99.90;;;;;;10350355;28;20679;-88
2022/12/29 05:07:49;;;;;;;6.93;4.00;;;7.20;99.90;;;;;;10335153;28;20325;-88
2022/12/29 05:12:52;;;;;;;4.57;3.87;;;7.40;99.90;;;;;;10349394;28;20241;-87
2022/12/29 05:17:55;;;;;;;5.53;3.90;;;7.80;99.90;;;;;;10363653;28;20238;-88
2022/12/29 05:22:59;;;;;;;3.70;3.23;;;7.60;99.90;;;;;;10346598;28;20239;-87
2022/12/29 05:28:02;;;;;;;8.00;4.97;;;7.90;99.90;;;;;;10350334;28;20314;-88
2022/12/29 05:33:24;;;;;;;8.07;6.23;;;8.20;99.90;;;;;;10367717;28;20259;-88
2022/12/29 05:38:27;;;;;;;9.90;6.27;;;7.90;99.90;;;;;;10348845;28;20204;-87
2022/12/29 05:43:30;;;;;;;12.13;5.63;;;7.50;99.90;;;;;;10346013;28;20275;-87
2022/12/29 05:49:02;;;;;;;7.93;4.57;;;7.20;99.90;;;;;;10244984;28;20339;-88
2022/12/29 05:54:13;;;;;;;6.03;4.40;;;7.50;99.90;;;;;;10244840;29;20685;-88
2022/12/29 05:59:16;;;;;;;7.30;4.03;;;7.40;99.90;;;;;;10234939;28;20263;-88
2022/12/29 06:04:19;;;;;;;10.60;5.53;;;7.30;99.90;;;;;;10207929;29;20243;-88
2022/12/29 06:09:23;;;;;;;11.20;6.33;;;7.30;99.90;;;;;;10214060;29;20316;-87
2022/12/29 06:14:26;;;;;;;13.90;8.07;;;7.30;99.90;;;;;;10225914;28;20568;-86
2022/12/29 06:19:29;;;;;;;10.37;6.13;;;7.20;99.90;;;;;;10228287;29;20343;-86
2022/12/29 06:24:31;;;;;;;8.37;5.73;;;7.10;99.90;;;;;;10297793;28;20204;-86
2022/12/29 06:29:36;;;;;;;9.67;5.33;;;7.20;99.90;;;;;;10351858;28;20263;-86
2022/12/29 06:34:39;;;;;;;5.20;3.33;;;7.10;99.90;;;;;;10370006;28;20243;-86
2022/12/29 06:39:43;;;;;;;6.47;4.50;;;7.10;99.90;;;;;;10370640;28;20208;-86
2022/12/29 06:44:47;;;;;;;8.40;6.00;;;7.20;99.90;;;;;;10346138;28;20235;-86
2022/12/29 06:49:50;;;;;;;13.70;7.70;;;7.10;99.90;;;;;;10361184;28;20279;-86
2022/12/29 06:54:52;;;;;;;8.00;6.17;;;7.10;99.90;;;;;;10328135;28;20225;-86
2022/12/29 06:59:58;;;;;;;10.37;6.23;;;7.10;99.90;;;;;;10335904;28;20237;-86
2022/12/29 07:05:00;;;;;;;6.07;4.20;;;7.10;99.90;;;;;;10378287;28;20586;-86
2022/12/29 07:10:03;;;;;;;11.67;6.80;;;7.10;99.90;;;;;;10385187;28;20923;-86
2022/12/29 07:15:06;;;;;;;7.63;4.90;;;7.10;99.90;;;;;;10373245;28;20204;-86
2022/12/29 07:20:11;;;;;;;5.03;4.17;;;7.20;99.90;;;;;;10370350;28;20307;-86
2022/12/29 07:25:14;;;;;;;10.60;5.93;;;7.20;99.90;;;;;;10361074;28;20243;-86
2022/12/29 07:30:20;;;;;;;10.30;6.17;;;7.30;99.90;;;;;;10356199;28;20577;-88
2022/12/29 07:35:23;;;;;;;11.47;6.37;;;7.40;99.90;;;;;;10363232;28;20197;-87
2022/12/29 07:40:25;;;;;;;11.27;6.33;;;7.40;99.90;;;;;;10347666;28;20271;-86
2022/12/29 07:45:27;;;;;;;12.17;6.90;;;7.50;99.90;;;;;;10364190;28;20209;-87
2022/12/29 07:50:48;;;;;;;14.87;8.83;;;7.60;99.90;;;;;;10364465;28;20705;-87
2022/12/29 07:55:50;;;;;;;10.27;6.57;;;7.60;99.90;;;;;;10360746;28;21189;-87
2022/12/29 08:00:57;;;;;;;9.40;6.40;;;7.70;99.90;;;;;;10406210;28;20247;-88
2022/12/29 08:05:59;;;;;;;8.03;4.60;;;7.70;99.90;;;;;;10407280;28;20210;-88
2022/12/29 08:11:02;;;;;;;8.73;5.60;;;7.90;99.90;;;;;;10411993;28;20183;-88
2022/12/29 08:16:05;;;;;;;7.50;4.60;;;7.90;99.90;;;;;;10396795;28;20193;-88
2022/12/29 08:21:07;;;;;;;6.97;4.50;;;7.80;99.90;;;;;;10401967;28;20505;-88
2022/12/29 08:26:10;;;;;;;14.00;7.37;;;7.80;99.90;;;;;;10404379;28;20221;-88
2022/12/29 08:31:13;;;;;;;18.63;9.57;;;7.80;99.90;;;;;;10404485;28;20181;-88
2022/12/29 08:36:16;;;;;;;7.23;4.80;;;7.80;99.90;;;;;;10372754;28;20185;-88
2022/12/29 08:41:18;;;;;;;7.03;5.17;;;7.80;99.90;;;;;;10395391;28;20208;-88
2022/12/29 08:46:21;;;;;;;9.27;6.20;;;7.90;99.90;;;;;;10397004;28;20241;-88
2022/12/29 08:51:24;;;;;;;15.30;8.47;;;7.90;99.90;;;;;;10383809;28;20208;-88
2022/12/29 08:56:27;;;;;;;12.67;7.30;;;7.90;99.90;;;;;;10382884;28;20205;-88
2022/12/29 09:01:33;;;;;;;9.67;6.03;;;7.90;99.90;;;;;;10382462;28;20223;-88
2022/12/29 09:06:36;;;;;;;13.63;8.53;;;7.90;99.90;;;;;;10384543;28;20208;-87
2022/12/29 09:11:42;;;;;;;9.83;5.70;;;8.00;99.90;;;;;;10402522;28;20201;-87
2022/12/29 09:22:06;;;;;;;9.00;5.73;;;8.20;99.90;;;;;;10389260;28;20215;-88
2022/12/29 09:27:11;;;;;;;10.33;5.50;;;8.20;99.90;;;;;;10389533;28;20212;-89
2022/12/29 09:32:14;;;;;;;11.63;6.63;;;8.40;99.90;;;;;;10422725;28;20184;-88
2022/12/29 09:37:21;;;;;;;11.97;6.97;;;8.60;99.90;;;;;;10406403;28;20247;-88
2022/12/29 09:42:29;;;;;;;13.43;6.87;;;8.80;99.90;;;;;;10370927;28;20475;-87
2022/12/29 09:47:32;;;;;;;11.13;6.60;;;8.90;99.90;;;;;;10403319;28;20200;-87
2022/12/29 09:52:48;;;;;;;13.73;7.40;;;9.00;99.90;;;;;;10421695;28;20185;-88
2022/12/29 09:58:05;;;;;;;13.90;6.60;;;9.10;99.90;;;;;;10405678;28;20238;-88
2022/12/29 10:03:19;;;;;;;10.03;5.27;;;9.20;99.90;;;;;;10404479;28;20204;-87
2022/12/29 10:08:37;;;;;;;9.03;6.30;;;9.00;99.90;;;;;;10406737;28;20199;-86
2022/12/29 10:14:01;;;;;;;7.03;4.90;;;8.90;99.90;;;;;;10421268;28;20215;-87
2022/12/29 10:19:18;;;;;;;11.73;5.43;;;8.90;99.90;;;;;;10422270;28;20173;-89
2022/12/29 10:24:22;;;;;;;7.97;4.43;;;9.20;99.90;;;;;;10404549;28;20227;-87
2022/12/29 10:29:33;;;;;;;10.43;4.17;;;9.40;99.90;;;;;;10420739;28;20216;-84
2022/12/29 10:34:43;;;;;;;6.00;3.57;;;10.60;99.90;;;;;;10424372;28;20175;-86
2022/12/29 10:39:50;;;;;;;5.60;3.47;;;10.60;99.90;;;;;;10407711;28;20178;-85
2022/12/29 10:44:57;;;;;;;4.67;3.03;;;11.50;99.90;;;;;;10394984;28;20201;-85
2022/12/29 10:50:02;;;;;;;3.30;3.00;;;12.00;99.90;;;;;;10410778;28;20234;-85
2022/12/29 10:55:17;;;;;;;5.00;3.37;;;12.50;99.90;;;;;;10390631;28;20216;-86
2022/12/29 11:00:21;;;;;;;5.03;3.93;;;12.80;99.90;;;;;;10427385;28;20214;-86
2022/12/29 11:05:58;;;;;;;6.83;3.23;;;12.80;99.90;;;;;;10413750;28;20188;-84
2022/12/29 11:11:06;;;;;;;3.43;2.47;;;13.20;99.90;;;;;;10431202;28;20227;-86
2022/12/29 11:16:11;;;;;;;8.53;5.33;;;13.10;99.90;;;;;;10414120;28;20231;-87
2022/12/29 11:21:44;;;;;;;4.73;3.53;;;13.20;98.90;;;;;;10414294;28;20218;-86
2022/12/29 11:26:49;;;;;;;7.17;4.77;;;12.90;99.90;;;;;;10400951;28;20239;-87
2022/12/29 11:31:58;;;;;;;7.30;4.80;;;12.70;98.70;;;;;;10430950;28;20180;-86
2022/12/29 11:37:10;;;;;;;8.07;5.00;;;12.60;99.90;;;;;;10430354;28;20208;-87
2022/12/29 11:42:19;;;;;;;4.60;3.40;;;11.90;99.90;;;;;;10431822;28;20200;-87
2022/12/29 11:47:33;;;;;;;8.63;4.77;;;11.80;99.90;;;;;;10421499;28;20208;-86
2022/12/29 11:52:39;;;;;;;4.67;3.33;;;12.10;99.90;;;;;;10426300;28;20189;-86
2022/12/29 11:57:44;;;;;;;4.07;3.00;;;13.20;99.90;;;;;;10428759;28;20208;-86
2022/12/29 12:03:04;;;;;;;3.40;2.63;;;13.10;99.90;;;;;;10428374;28;20191;-87
2022/12/29 12:08:18;;;;;;;5.80;3.20;;;13.60;99.90;;;;;;10429519;28;20208;-87
2022/12/29 12:13:35;;;;;;;2.53;2.07;;;13.40;99.90;;;;;;10429314;28;20205;-87
2022/12/29 12:19:01;;;;;;;4.63;3.53;;;13.40;99.90;;;;;;10394251;28;20205;-86
2022/12/29 12:24:33;;;;;;;3.23;2.60;;;14.30;97.80;;;;;;10428032;28;20176;-85
2022/12/29 12:30:07;;;;;;;6.50;3.70;;;14.30;98.20;;;;;;10386631;28;20290;-85
2022/12/29 12:35:22;;;;;;;4.57;3.03;;;14.10;98.90;;;;;;10361398;28;20232;-85
2022/12/29 12:40:46;;;;;;;4.73;2.80;;;14.30;96.60;;;;;;10386362;28;20200;-85
2022/12/29 12:46:09;;;;;;;3.30;2.47;;;14.40;99.70;;;;;;10385316;28;20212;-85
2022/12/29 12:51:38;;;;;;;9.00;4.47;;;14.40;97.70;;;;;;10382141;28;20266;-82
2022/12/29 12:56:53;;;;;;;5.67;3.97;;;13.10;96.40;;;;;;10362741;28;20202;-84
2022/12/29 13:02:19;;;;;;;8.73;5.30;;;11.40;99.90;;;;;;10382128;28;20279;-86
2022/12/29 13:07:44;;;;;;;6.90;3.93;;;10.80;99.90;;;;;;10382477;28;20216;-88
2022/12/29 13:13:12;;;;;;;8.33;3.73;;;11.10;99.90;;;;;;10377900;28;20389;-87
2022/12/29 13:18:53;;;;;;;10.83;4.37;;;11.90;99.90;;;;;;10371057;28;20219;-87
2022/12/29 13:24:10;;;;;;;10.10;5.50;;;12.00;99.90;;;;;;10368658;28;20219;-87
2022/12/29 13:29:42;;;;;;;6.40;4.20;;;11.40;99.90;;;;;;10380742;28;20222;-87
2022/12/29 13:34:45;;;;;;;7.67;4.97;;;11.00;99.90;;;;;;10380639;28;20232;-87
2022/12/29 13:40:14;;;;;;;17.57;9.43;;;10.80;99.90;;;;;;10362482;28;20225;-87
2022/12/29 13:45:20;;;;;;;20.33;10.37;;;10.60;99.90;;;;;;10372298;28;20255;-87
2022/12/29 13:50:26;;;;;;;8.53;5.30;;;10.60;99.90;;;;;;10379354;28;20219;-87
2022/12/29 13:55:57;;;;;;;10.57;6.97;;;10.60;99.90;;;;;;10379208;28;20203;-87
2022/12/29 14:01:18;;;;;;;11.87;5.93;;;10.40;99.90;;;;;;10378634;28;20228;-87
2022/12/29 14:06:30;;;;;;;9.97;5.63;;;10.60;99.90;;;;;;10378271;28;20228;-87
2022/12/29 14:11:38;;;;;;;6.30;3.63;;;10.60;99.90;;;;;;10366272;28;20705;-87
2022/12/29 14:16:42;;;;;;;9.43;4.47;;;10.50;99.90;;;;;;10373575;28;20208;-87
2022/12/29 14:22:01;;;;;;;14.00;5.53;;;10.50;99.90;;;;;;10356608;28;20212;-87
2022/12/29 14:27:10;;;;;;;11.60;6.73;;;10.40;99.90;;;;;;10376171;28;20257;-87
2022/12/29 14:32:25;;;;;;;17.00;8.27;;;10.10;99.90;;;;;;10360275;28;20298;-87
2022/12/29 14:37:31;;;;;;;14.97;7.40;;;10.00;99.90;;;;;;10375940;28;20477;-87
2022/12/29 14:42:35;;;;;;;11.63;5.80;;;9.90;99.90;;;;;;10375210;28;20237;-87
2022/12/29 14:47:43;;;;;;;12.20;5.80;;;9.80;99.90;;;;;;10377612;28;20340;-87
2022/12/29 14:52:54;;;;;;;10.27;6.17;;;9.70;99.90;;;;;;10360363;28;20208;-87
2022/12/29 14:58:14;;;;;;;17.37;7.07;;;9.80;99.90;;;;;;10376082;28;20343;-87
2022/12/29 15:03:22;;;;;;;9.77;5.90;;;9.90;99.90;;;;;;10374748;28;20259;-87
2022/12/29 15:08:32;;;;;;;5.10;3.40;;;9.70;99.90;;;;;;10374792;28;20643;-87
2022/12/29 15:13:42;;;;;;;9.07;5.50;;;9.70;99.90;;;;;;10356365;28;20679;-87
2022/12/29 15:18:44;;;;;;;11.23;5.27;;;9.60;99.90;;;;;;10373646;28;20274;-87
2022/12/29 15:23:48;;;;;;;15.23;6.50;;;9.50;99.90;;;;;;10372476;28;20259;-87
2022/12/29 15:28:52;;;;;;;7.80;5.40;;;9.40;99.90;;;;;;10371734;28;20283;-87
2022/12/29 15:34:08;;;;;;;7.30;5.30;;;9.50;99.90;;;;;;10353711;28;20624;-87
2022/12/29 15:39:27;;;;;;;14.80;6.43;;;9.40;99.90;;;;;;10372538;28;20244;-87
2022/12/29 15:44:41;;;;;;;8.00;5.63;;;9.40;99.90;;;;;;10372551;28;20233;-87
2022/12/29 15:49:48;;;;;;;11.30;5.77;;;9.60;99.90;;;;;;10371786;28;20330;-87
2022/12/29 15:54:53;;;;;;;33.87;7.63;;;9.60;99.90;;;;;;10357052;28;20308;-87
2022/12/29 15:59:56;;;;;;;55.63;8.40;;;10.40;99.90;;;;;;10329062;28;20265;-86
2022/12/29 16:04:58;;;;;;;32.83;7.37;;;10.60;99.90;;;;;;10357836;28;20235;-86
2022/12/29 16:10:36;;;;;;;30.53;8.23;;;11.10;99.90;;;;;;10344916;28;20255;-87
2022/12/29 16:15:39;;;;;;;26.47;8.10;;;11.50;99.90;;;;;;10350384;28;20259;-86
2022/12/29 16:20:42;;;;;;;39.50;9.13;;;11.70;99.90;;;;;;10349659;28;20377;-87
2022/12/29 16:25:45;;;;;;;22.00;6.60;;;11.90;99.90;;;;;;10363371;28;20240;-86
2022/12/29 16:30:59;;;;;;;15.17;7.07;;;12.20;99.90;;;;;;10366882;28;20532;-86
2022/12/29 16:36:01;;;;;;;16.97;6.90;;;12.20;99.90;;;;;;10367920;28;20232;-86
2022/12/29 16:41:04;;;;;;;16.57;6.77;;;12.20;99.90;;;;;;10367980;28;20689;-86
2022/12/29 16:46:28;;;;;;;17.60;7.37;;;12.10;99.80;;;;;;10369338;28;20240;-85
2022/12/29 16:51:35;;;;;;;13.20;6.40;;;11.80;99.90;;;;;;10368387;28;20248;-86
2022/12/29 16:56:44;;;;;;;11.47;6.97;;;12.30;99.70;;;;;;10368843;28;20224;-86
2022/12/29 17:01:47;;;;;;;14.97;7.90;;;12.20;98.80;;;;;;10351149;28;20287;-86
2022/12/29 17:06:50;;;;;;;16.17;8.83;;;11.40;99.30;;;;;;10367869;28;20319;-86
2022/12/29 17:11:57;;;;;;;20.50;9.97;;;11.00;99.90;;;;;;10368682;28;20254;-85
2022/12/29 17:17:34;;;;;;;27.23;12.63;;;10.40;99.90;;;;;;10368663;28;20620;-85
2022/12/29 17:22:37;;;;;;;11.50;7.63;;;9.90;99.90;;;;;;10367702;28;20758;-86
2022/12/29 17:27:47;;;;;;;14.13;7.83;;;9.80;99.90;;;;;;10367266;28;20704;-85
2022/12/29 17:33:10;;;;;;;13.90;8.43;;;9.50;99.90;;;;;;10350433;28;20238;-86
2022/12/29 17:38:22;;;;;;;10.00;7.17;;;9.50;99.90;;;;;;10349952;28;20270;-86
2022/12/29 17:43:26;;;;;;;24.77;9.33;;;9.70;99.90;;;;;;10352498;28;20236;-85
2022/12/29 17:48:37;;;;;;;14.87;10.33;;;10.50;99.90;;;;;;10394627;28;20259;-87
2022/12/29 17:53:40;;;;;;;21.83;13.30;;;10.30;99.90;;;;;;10384171;28;20232;-86
2022/12/29 17:58:44;;;;;;;29.90;17.20;;;9.60;99.90;;;;;;10361410;28;20724;-87
2022/12/29 18:03:47;;;;;;;21.43;11.37;;;9.30;99.90;;;;;;10365806;28;20696;-87
2022/12/29 18:08:50;;;;;;;14.10;9.83;;;9.00;99.90;;;;;;10349352;28;20671;-87
2022/12/29 18:13:53;;;;;;;18.40;10.37;;;8.90;99.90;;;;;;10359452;28;20282;-87
2022/12/29 18:18:56;;;;;;;18.03;10.60;;;8.80;99.90;;;;;;10365664;28;20296;-87
2022/12/29 18:23:58;;;;;;;16.07;10.20;;;8.60;99.90;;;;;;10364676;28;20639;-87
2022/12/29 18:29:01;;;;;;;15.00;7.87;;;8.50;99.90;;;;;;10354693;28;20636;-87
2022/12/29 18:34:12;;;;;;;14.17;8.60;;;8.50;99.90;;;;;;10353825;28;20293;-87
2022/12/29 18:39:15;;;;;;;12.87;8.13;;;8.40;99.90;;;;;;10348646;28;20263;-87
2022/12/29 18:44:19;;;;;;;16.10;7.60;;;8.30;99.90;;;;;;10329336;28;20241;-88
2022/12/29 18:49:22;;;;;;;21.23;11.17;;;8.30;99.90;;;;;;10342047;28;20283;-88
2022/12/29 18:54:30;;;;;;;24.97;13.57;;;8.10;99.90;;;;;;10344762;28;20253;-88
2022/12/29 18:59:33;;;;;;;29.47;14.97;;;8.10;99.90;;;;;;10327515;28;20264;-87
2022/12/29 19:04:35;;;;;;;26.40;16.37;;;8.10;99.90;;;;;;10364326;28;20243;-88
2022/12/29 19:09:38;;;;;;;28.60;15.30;;;8.00;99.90;;;;;;10366761;28;20248;-87
2022/12/29 19:14:40;;;;;;;26.80;15.53;;;7.90;99.90;;;;;;10354641;28;20236;-88
2022/12/29 19:19:43;;;;;;;22.97;13.80;;;8.00;99.90;;;;;;10356058;28;20659;-88
2022/12/29 19:24:45;;;;;;;24.73;13.67;;;7.80;99.90;;;;;;10354694;28;20267;-87
2022/12/29 19:29:48;;;;;;;21.13;12.37;;;7.80;99.90;;;;;;10338854;28;20283;-87
2022/12/29 19:34:51;;;;;;;18.03;11.07;;;7.80;99.90;;;;;;10353714;28;20244;-87
2022/12/29 19:39:53;;;;;;;19.67;11.83;;;7.80;99.90;;;;;;10371371;28;20298;-88
2022/12/29 19:44:56;;;;;;;22.13;13.37;;;7.70;99.90;;;;;;10372427;28;20260;-88
2022/12/29 19:49:59;;;;;;;26.53;12.80;;;7.60;99.90;;;;;;10367155;28;20317;-88
2022/12/29 19:55:03;;;;;;;26.53;16.50;;;7.50;99.90;;;;;;10354919;28;20224;-88
2022/12/29 20:00:06;;;;;;;30.13;15.50;;;7.50;99.90;;;;;;10359403;28;20353;-88
2022/12/29 20:05:13;;;;;;;25.40;15.30;;;7.40;99.90;;;;;;10363852;28;20962;-89
2022/12/29 20:10:15;;;;;;;27.80;14.10;;;7.40;99.90;;;;;;10370240;28;20259;-88
2022/12/29 20:15:18;;;;;;;27.67;14.50;;;7.30;99.90;;;;;;10335900;28;20229;-87
2022/12/29 20:20:21;;;;;;;25.07;15.37;;;7.20;99.90;;;;;;10353301;28;20235;-87
2022/12/29 20:25:23;;;;;;;30.07;16.87;;;7.00;99.90;;;;;;10371925;28;20216;-88
2022/12/29 20:30:57;;;;;;;25.67;11.50;;;6.90;99.90;;;;;;10348889;28;20720;-87
2022/12/29 20:36:14;;;;;;;21.40;12.43;;;6.80;99.90;;;;;;10336058;28;20215;-87
2022/12/29 20:41:17;;;;;;;30.35;18.35;;;6.90;99.90;;;;;;10327536;28;20472;-83
2022/12/29 20:46:20;;;;;;;20.30;11.00;;;7.00;99.90;;;;;;10311515;28;20650;-83
2022/12/29 20:51:30;;;;;;;25.27;13.43;;;7.00;99.90;;;;;;10324914;28;20251;-83
2022/12/29 20:56:54;;;;;;;30.60;15.60;;;7.00;99.90;;;;;;10332839;28;20233;-84
2022/12/29 21:01:57;;;;;;;31.10;16.43;;;6.60;99.90;;;;;;10348045;28;20263;-84
2022/12/29 21:06:59;;;;;;;31.23;16.63;;;6.30;99.90;;;;;;10359697;28;20240;-85
2022/12/29 21:12:03;;;;;;;26.50;15.37;;;6.10;99.90;;;;;;10348197;28;20338;-84
2022/12/29 21:17:06;;;;;;;44.97;25.33;;;6.00;99.90;;;;;;10365613;28;20254;-84
2022/12/29 21:22:09;;;;;;;27.83;15.70;;;6.40;99.90;;;;;;10350026;28;20232;-85
2022/12/29 21:27:12;;;;;;;50.63;30.13;;;6.50;99.90;;;;;;10366881;28;20293;-84
2022/12/29 21:32:14;;;;;;;112.73;67.37;;;6.70;99.90;;;;;;10348024;28;20318;-84
2022/12/29 21:37:17;;;;;;;22.57;13.37;;;7.30;99.90;;;;;;10353441;28;20219;-84
2022/12/29 21:42:26;;;;;;;27.90;14.93;;;7.20;99.90;;;;;;10367821;28;20242;-85
2022/12/29 21:48:19;;;;;;;24.50;13.93;;;7.20;99.90;;;;;;10366230;28;20298;-83
2022/12/29 21:52:55;;;;;;;51.70;28.47;;;7.20;99.90;;;;;;10364895;28;20314;-83
2022/12/29 22:14:11;;;;;;;85.33;50.93;;;9.80;99.90;;;;;;10169153;29;20316;-85
2022/12/29 22:19:15;;;;;;;18.77;12.47;;;9.30;99.90;;;;;;10163011;29;20334;-90
2022/12/29 22:24:17;;;;;;;21.80;12.53;;;8.70;99.90;;;;;;10163213;29;20267;-87
2022/12/29 22:29:20;;;;;;;21.57;11.93;;;8.30;99.90;;;;;;10182517;29;20242;-88
2022/12/29 22:34:22;;;;;;;15.83;9.13;;;8.10;99.90;;;;;;10201494;29;20234;-87
2022/12/29 22:39:25;;;;;;;21.47;12.30;;;7.90;99.90;;;;;;10297158;28;21026;-90
2022/12/29 22:44:27;;;;;;;17.13;8.20;;;7.90;99.90;;;;;;10355272;28;20693;-88
2022/12/29 22:49:30;;;;;;;15.53;8.13;;;7.90;99.90;;;;;;10334577;28;20252;-88
2022/12/29 22:54:32;;;;;;;145.70;83.37;;;7.80;99.90;;;;;;10354249;28;20217;-88
2022/12/29 22:59:35;;;;;;;18.97;10.53;;;8.20;99.90;;;;;;10347050;28;20321;-88
2022/12/29 23:04:38;;;;;;;26.07;13.80;;;8.20;99.90;;;;;;10373595;28;20239;-87
2022/12/29 23:10:01;;;;;;;36.53;18.87;;;7.80;99.90;;;;;;10363242;28;20309;-89
2022/12/29 23:15:04;;;;;;;30.27;14.93;;;7.50;99.90;;;;;;10349018;28;20290;-88
2022/12/29 23:20:07;;;;;;;17.60;9.77;;;7.30;99.90;;;;;;10372739;28;20832;-88
2022/12/29 23:25:10;;;;;;;20.13;9.87;;;7.20;99.90;;;;;;10372428;28;20851;-89
2022/12/29 23:30:12;;;;;;;20.53;9.83;;;7.10;99.90;;;;;;10372951;28;20298;-88
2022/12/29 23:35:15;;;;;;;22.07;9.87;;;7.10;99.90;;;;;;10356032;28;20224;-89
2022/12/29 23:40:17;;;;;;;12.57;7.87;;;7.10;99.90;;;;;;10372253;28;20239;-88
2022/12/29 23:45:20;;;;;;;13.93;8.30;;;7.10;99.90;;;;;;10371855;28;20244;-89
2022/12/29 23:50:23;;;;;;;18.30;7.67;;;7.20;99.90;;;;;;10339985;28;20707;-88
2022/12/29 23:55:25;;;;;;;14.53;7.93;;;7.10;99.90;;;;;;10353462;28;20232;-89
